Time;durP1;ratioP1;P1;durP2;ratioP2;P2;SDS_P1;SDS_P2;PMS_P1;PMS_P2;Temp;Humidity;BMP_temperature;BMP_pressure;BME280_temperature;BME280_humidity;BME280_pressure;Samples;Min_cycle;Max_cycle;Signal;HPM_P1;HPM_P2
2021/03/25 00:00:52;;;;;;;2.85;2.15;;;;;;;1.49;59.05957;95673.08;;;;
2021/03/25 00:01:53;;;;;;;2.85;2.15;;;;;;;1.49;59.05957;95673.08;;;;
2021/03/25 00:02:56;;;;;;;2.85;2.15;;;;;;;1.49;59.05957;95673.08;;;;
2021/03/25 00:03:59;;;;;;;2.85;2.15;;;;;;;1.49;59.05957;95673.08;;;;
2021/03/25 00:05:01;;;;;;;2.85;2.15;;;;;;;1.49;59.05957;95673.08;;;;
2021/03/25 00:06:03;;;;;;;2.85;2.15;;;;;;;1.49;59.05957;95673.08;;;;
2021/03/25 00:07:05;;;;;;;3.55;2.1;;;;;;;1.47;59.19238;95664.97;;;;
2021/03/25 00:08:07;;;;;;;3.55;2.1;;;;;;;1.47;59.19238;95664.97;;;;
2021/03/25 00:09:12;;;;;;;3.55;2.1;;;;;;;1.47;59.19238;95664.97;;;;
2021/03/25 00:10:15;;;;;;;3.55;2.1;;;;;;;1.47;59.19238;95664.97;;;;
2021/03/25 00:11:19;;;;;;;3.55;2.1;;;;;;;1.47;59.19238;95664.97;;;;
2021/03/25 00:12:20;;;;;;;3.55;2.1;;;;;;;1.47;59.19238;95664.97;;;;
2021/03/25 00:13:20;;;;;;;3.55;2.1;;;;;;;1.47;59.19238;95664.97;;;;
2021/03/25 00:14:23;;;;;;;3.55;2.1;;;;;;;1.47;59.19238;95664.97;;;;
2021/03/25 00:15:24;;;;;;;3.55;2.1;;;;;;;1.47;59.19238;95664.97;;;;
2021/03/25 00:16:25;;;;;;;3.55;2.1;;;;;;;1.47;59.19238;95664.97;;;;
2021/03/25 00:17:26;;;;;;;3.55;2.1;;;;;;;1.47;59.19238;95664.97;;;;
2021/03/25 00:18:26;;;;;;;4;2.15;;;;;;;1.4;59.26758;95661.75;;;;
2021/03/25 00:19:27;;;;;;;4;2.15;;;;;;;1.4;59.26758;95661.75;;;;
2021/03/25 00:20:27;;;;;;;4;2.15;;;;;;;1.4;59.26758;95661.75;;;;
2021/03/25 00:21:28;;;;;;;4;2.15;;;;;;;1.4;59.26758;95661.75;;;;
2021/03/25 00:22:29;;;;;;;4;2.15;;;;;;;1.4;59.26758;95661.75;;;;
2021/03/25 00:23:29;;;;;;;4;2.15;;;;;;;1.4;59.26758;95661.75;;;;
2021/03/25 00:24:30;;;;;;;4;2.15;;;;;;;1.4;59.26758;95661.75;;;;
2021/03/25 00:25:31;;;;;;;4;2.15;;;;;;;1.4;59.26758;95661.75;;;;
2021/03/25 00:26:34;;;;;;;4;2.15;;;;;;;1.4;59.26758;95661.75;;;;
2021/03/25 00:27:35;;;;;;;4;2.15;;;;;;;1.4;59.26758;95661.75;;;;
2021/03/25 00:28:35;;;;;;;2.75;1.95;;;;;;;1.34;59.79492;95653.11;;;;
2021/03/25 00:29:36;;;;;;;2.75;1.95;;;;;;;1.34;59.79492;95653.11;;;;
2021/03/25 00:30:36;;;;;;;2.75;1.95;;;;;;;1.34;59.79492;95653.11;;;;
2021/03/25 00:31:37;;;;;;;2.75;1.95;;;;;;;1.34;59.79492;95653.11;;;;
2021/03/25 00:32:38;;;;;;;2.75;1.95;;;;;;;1.34;59.79492;95653.11;;;;
2021/03/25 00:33:39;;;;;;;2.75;1.95;;;;;;;1.34;59.79492;95653.11;;;;
2021/03/25 00:34:39;;;;;;;2.75;1.95;;;;;;;1.34;59.79492;95653.11;;;;
2021/03/25 00:35:40;;;;;;;2.75;1.95;;;;;;;1.34;59.79492;95653.11;;;;
2021/03/25 00:36:42;;;;;;;2.75;1.95;;;;;;;1.34;59.79492;95653.11;;;;
2021/03/25 00:37:43;;;;;;;2.75;1.95;;;;;;;1.34;59.79492;95653.11;;;;
2021/03/25 00:38:44;;;;;;;2.75;1.95;;;;;;;1.34;59.79492;95653.11;;;;
2021/03/25 00:39:44;;;;;;;3.4;2.1;;;;;;;1.34;59.88965;95647.8;;;;
2021/03/25 00:40:44;;;;;;;3.4;2.1;;;;;;;1.34;59.88965;95647.8;;;;
2021/03/25 00:41:48;;;;;;;3.4;2.1;;;;;;;1.34;59.88965;95647.8;;;;
2021/03/25 00:42:48;;;;;;;3.4;2.1;;;;;;;1.34;59.88965;95647.8;;;;
2021/03/25 00:43:50;;;;;;;3.4;2.1;;;;;;;1.34;59.88965;95647.8;;;;
2021/03/25 00:44:51;;;;;;;3.4;2.1;;;;;;;1.34;59.88965;95647.8;;;;
2021/03/25 00:45:51;;;;;;;3.4;2.1;;;;;;;1.34;59.88965;95647.8;;;;
2021/03/25 00:46:52;;;;;;;3.4;2.1;;;;;;;1.34;59.88965;95647.8;;;;
2021/03/25 00:47:52;;;;;;;3.4;2.1;;;;;;;1.34;59.88965;95647.8;;;;
2021/03/25 00:48:53;;;;;;;3.4;2.1;;;;;;;1.34;59.88965;95647.8;;;;
2021/03/25 00:49:53;;;;;;;4;1.85;;;;;;;1.28;60.25879;95633.42;;;;
2021/03/25 00:50:54;;;;;;;4;1.85;;;;;;;1.28;60.25879;95633.42;;;;
2021/03/25 00:51:56;;;;;;;4;1.85;;;;;;;1.28;60.25879;95633.42;;;;
2021/03/25 00:52:57;;;;;;;4;1.85;;;;;;;1.28;60.25879;95633.42;;;;
2021/03/25 00:53:58;;;;;;;4;1.85;;;;;;;1.28;60.25879;95633.42;;;;
2021/03/25 00:54:59;;;;;;;4;1.85;;;;;;;1.28;60.25879;95633.42;;;;
2021/03/25 00:55:59;;;;;;;4;1.85;;;;;;;1.28;60.25879;95633.42;;;;
2021/03/25 00:57:01;;;;;;;4;1.85;;;;;;;1.28;60.25879;95633.42;;;;
2021/03/25 00:58:03;;;;;;;4;1.85;;;;;;;1.28;60.25879;95633.42;;;;
2021/03/25 00:59:04;;;;;;;4;1.85;;;;;;;1.28;60.25879;95633.42;;;;
2021/03/25 01:00:04;;;;;;;4;1.85;;;;;;;1.28;60.25879;95633.42;;;;
2021/03/25 01:01:08;;;;;;;2.6;2;;;;;;;1.19;60.40332;95631.39;;;;
2021/03/25 01:02:09;;;;;;;2.6;2;;;;;;;1.19;60.40332;95631.39;;;;
2021/03/25 01:03:10;;;;;;;2.6;2;;;;;;;1.19;60.40332;95631.39;;;;
2021/03/25 01:04:12;;;;;;;2.6;2;;;;;;;1.19;60.40332;95631.39;;;;
2021/03/25 01:05:12;;;;;;;2.6;2;;;;;;;1.19;60.40332;95631.39;;;;
2021/03/25 01:06:14;;;;;;;2.6;2;;;;;;;1.19;60.40332;95631.39;;;;
2021/03/25 01:07:15;;;;;;;2.6;2;;;;;;;1.19;60.40332;95631.39;;;;
2021/03/25 01:08:20;;;;;;;2.6;2;;;;;;;1.19;60.40332;95631.39;;;;
2021/03/25 01:09:21;;;;;;;2.6;2;;;;;;;1.19;60.40332;95631.39;;;;
2021/03/25 01:10:25;;;;;;;2.6;2;;;;;;;1.19;60.40332;95631.39;;;;
2021/03/25 01:11:30;;;;;;;2.8;2.1;;;;;;;1.15;60.58887;95626.92;;;;
2021/03/25 01:12:31;;;;;;;2.8;2.1;;;;;;;1.15;60.58887;95626.92;;;;
2021/03/25 01:13:31;;;;;;;2.8;2.1;;;;;;;1.15;60.58887;95626.92;;;;
2021/03/25 01:14:37;;;;;;;2.8;2.1;;;;;;;1.15;60.58887;95626.92;;;;
2021/03/25 01:15:37;;;;;;;2.8;2.1;;;;;;;1.15;60.58887;95626.92;;;;
2021/03/25 01:16:38;;;;;;;2.8;2.1;;;;;;;1.15;60.58887;95626.92;;;;
2021/03/25 01:17:42;;;;;;;2.8;2.1;;;;;;;1.15;60.58887;95626.92;;;;
2021/03/25 01:18:47;;;;;;;2.8;2.1;;;;;;;1.15;60.58887;95626.92;;;;
2021/03/25 01:19:48;;;;;;;2.8;2.1;;;;;;;1.15;60.58887;95626.92;;;;
2021/03/25 01:20:48;;;;;;;2.8;2.1;;;;;;;1.15;60.58887;95626.92;;;;
2021/03/25 01:21:49;;;;;;;2.45;1.75;;;;;;;1.11;60.91992;95617.61;;;;
2021/03/25 01:22:50;;;;;;;2.45;1.75;;;;;;;1.11;60.91992;95617.61;;;;
2021/03/25 01:23:51;;;;;;;2.45;1.75;;;;;;;1.11;60.91992;95617.61;;;;
2021/03/25 01:24:51;;;;;;;2.45;1.75;;;;;;;1.11;60.91992;95617.61;;;;
2021/03/25 01:25:52;;;;;;;2.45;1.75;;;;;;;1.11;60.91992;95617.61;;;;
2021/03/25 01:26:52;;;;;;;2.45;1.75;;;;;;;1.11;60.91992;95617.61;;;;
2021/03/25 01:27:53;;;;;;;2.45;1.75;;;;;;;1.11;60.91992;95617.61;;;;
2021/03/25 01:28:54;;;;;;;2.45;1.75;;;;;;;1.11;60.91992;95617.61;;;;
2021/03/25 01:29:54;;;;;;;2.45;1.75;;;;;;;1.11;60.91992;95617.61;;;;
2021/03/25 01:30:55;;;;;;;2.45;1.75;;;;;;;1.11;60.91992;95617.61;;;;
2021/03/25 01:31:55;;;;;;;2.45;1.75;;;;;;;1.11;60.91992;95617.61;;;;
2021/03/25 01:32:56;;;;;;;2.4;1.85;;;;;;;1.08;61.05078;95619.26;;;;
2021/03/25 01:33:58;;;;;;;2.4;1.85;;;;;;;1.08;61.05078;95619.26;;;;
2021/03/25 01:34:59;;;;;;;2.4;1.85;;;;;;;1.08;61.05078;95619.26;;;;
2021/03/25 01:35:59;;;;;;;2.4;1.85;;;;;;;1.08;61.05078;95619.26;;;;
2021/03/25 01:37:00;;;;;;;2.4;1.85;;;;;;;1.08;61.05078;95619.26;;;;
2021/03/25 01:38:00;;;;;;;2.4;1.85;;;;;;;1.08;61.05078;95619.26;;;;
2021/03/25 01:39:02;;;;;;;2.4;1.85;;;;;;;1.08;61.05078;95619.26;;;;
2021/03/25 01:40:03;;;;;;;2.4;1.85;;;;;;;1.08;61.05078;95619.26;;;;
2021/03/25 01:41:07;;;;;;;2.4;1.85;;;;;;;1.08;61.05078;95619.26;;;;
2021/03/25 01:42:08;;;;;;;2.4;1.85;;;;;;;1.08;61.05078;95619.26;;;;
2021/03/25 01:43:19;;;;;;;2.299999;1.65;;;;;;;1.08;61.34473;95610.47;;;;
2021/03/25 01:44:26;;;;;;;2.299999;1.65;;;;;;;1.08;61.34473;95610.47;;;;
2021/03/25 01:45:35;;;;;;;2.299999;1.65;;;;;;;1.08;61.34473;95610.47;;;;
2021/03/25 01:46:43;;;;;;;2.299999;1.65;;;;;;;1.08;61.34473;95610.47;;;;
2021/03/25 01:47:43;;;;;;;2.299999;1.65;;;;;;;1.08;61.34473;95610.47;;;;
2021/03/25 01:48:45;;;;;;;2.299999;1.65;;;;;;;1.08;61.34473;95610.47;;;;
2021/03/25 01:49:48;;;;;;;2.299999;1.65;;;;;;;1.08;61.34473;95610.47;;;;
2021/03/25 01:50:48;;;;;;;2.299999;1.65;;;;;;;1.08;61.34473;95610.47;;;;
2021/03/25 01:51:50;;;;;;;2.299999;1.65;;;;;;;1.08;61.34473;95610.47;;;;
2021/03/25 01:53:02;;;;;;;2.299999;1.65;;;;;;;1.08;61.34473;95610.47;;;;
2021/03/25 01:54:15;;;;;;;2.6;1.8;;;;;;;1.15;61.45898;95611.45;;;;
2021/03/25 01:55:52;;;;;;;2.6;1.8;;;;;;;1.15;61.45898;95611.45;;;;
2021/03/25 01:56:59;;;;;;;2.6;1.8;;;;;;;1.15;61.45898;95611.45;;;;
2021/03/25 01:58:28;;;;;;;2.6;1.8;;;;;;;1.15;61.45898;95611.45;;;;
2021/03/25 02:00:04;;;;;;;2.6;1.8;;;;;;;1.15;61.45898;95611.45;;;;
2021/03/25 02:01:17;;;;;;;2.6;1.8;;;;;;;1.15;61.45898;95611.45;;;;
2021/03/25 02:02:28;;;;;;;2.6;1.8;;;;;;;1.15;61.45898;95611.45;;;;
2021/03/25 02:03:35;;;;;;;2.6;1.8;;;;;;;1.15;61.45898;95611.45;;;;
2021/03/25 02:05:00;;;;;;;2.8;1.8;;;;;;;1.26;61.81152;95604.86;;;;
2021/03/25 02:06:08;;;;;;;2.8;1.8;;;;;;;1.26;61.81152;95604.86;;;;
2021/03/25 02:07:18;;;;;;;2.8;1.8;;;;;;;1.26;61.81152;95604.86;;;;
2021/03/25 02:08:29;;;;;;;2.8;1.8;;;;;;;1.26;61.81152;95604.86;;;;
2021/03/25 02:09:44;;;;;;;2.8;1.8;;;;;;;1.26;61.81152;95604.86;;;;
2021/03/25 02:10:52;;;;;;;2.8;1.8;;;;;;;1.26;61.81152;95604.86;;;;
2021/03/25 02:12:04;;;;;;;2.8;1.8;;;;;;;1.26;61.81152;95604.86;;;;
2021/03/25 02:13:12;;;;;;;2.8;1.8;;;;;;;1.26;61.81152;95604.86;;;;
2021/03/25 02:14:21;;;;;;;2.8;1.8;;;;;;;1.26;61.81152;95604.86;;;;
2021/03/25 02:15:31;;;;;;;3;1.8;;;;;;;1.41;62.17188;95597.31;;;;
2021/03/25 02:16:37;;;;;;;3;1.8;;;;;;;1.41;62.17188;95597.31;;;;
2021/03/25 02:17:40;;;;;;;3;1.8;;;;;;;1.41;62.17188;95597.31;;;;
2021/03/25 02:18:45;;;;;;;3;1.8;;;;;;;1.41;62.17188;95597.31;;;;
2021/03/25 02:19:53;;;;;;;3;1.8;;;;;;;1.41;62.17188;95597.31;;;;
2021/03/25 02:21:25;;;;;;;3;1.8;;;;;;;1.41;62.17188;95597.31;;;;
2021/03/25 02:22:45;;;;;;;3;1.8;;;;;;;1.41;62.17188;95597.31;;;;
2021/03/25 02:24:03;;;;;;;3;1.8;;;;;;;1.41;62.17188;95597.31;;;;
2021/03/25 02:25:15;;;;;;;3;1.8;;;;;;;1.41;62.17188;95597.31;;;;
2021/03/25 02:26:21;;;;;;;4;1.95;;;;;;;1.46;62.13672;95596.29;;;;
2021/03/25 02:27:28;;;;;;;4;1.95;;;;;;;1.46;62.13672;95596.29;;;;
2021/03/25 02:28:42;;;;;;;4;1.95;;;;;;;1.46;62.13672;95596.29;;;;
2021/03/25 02:29:56;;;;;;;4;1.95;;;;;;;1.46;62.13672;95596.29;;;;
2021/03/25 02:31:01;;;;;;;4;1.95;;;;;;;1.46;62.13672;95596.29;;;;
2021/03/25 02:32:09;;;;;;;4;1.95;;;;;;;1.46;62.13672;95596.29;;;;
2021/03/25 02:33:14;;;;;;;4;1.95;;;;;;;1.46;62.13672;95596.29;;;;
2021/03/25 02:34:21;;;;;;;4;1.95;;;;;;;1.46;62.13672;95596.29;;;;
2021/03/25 02:35:27;;;;;;;4;1.95;;;;;;;1.46;62.13672;95596.29;;;;
2021/03/25 02:36:33;;;;;;;2.1;1.7;;;;;;;1.44;62.61621;95585.1;;;;
2021/03/25 02:37:40;;;;;;;2.1;1.7;;;;;;;1.44;62.61621;95585.1;;;;
2021/03/25 02:38:45;;;;;;;2.1;1.7;;;;;;;1.44;62.61621;95585.1;;;;
2021/03/25 02:39:51;;;;;;;2.1;1.7;;;;;;;1.44;62.61621;95585.1;;;;
2021/03/25 02:41:01;;;;;;;2.1;1.7;;;;;;;1.44;62.61621;95585.1;;;;
2021/03/25 02:42:06;;;;;;;2.1;1.7;;;;;;;1.44;62.61621;95585.1;;;;
2021/03/25 02:43:09;;;;;;;2.1;1.7;;;;;;;1.44;62.61621;95585.1;;;;
2021/03/25 02:44:14;;;;;;;2.1;1.7;;;;;;;1.44;62.61621;95585.1;;;;
2021/03/25 02:45:21;;;;;;;2.1;1.7;;;;;;;1.44;62.61621;95585.1;;;;
2021/03/25 02:46:28;;;;;;;2.1;1.7;;;;;;;1.44;62.61621;95585.1;;;;
2021/03/25 02:47:32;;;;;;;3.5;1.9;;;;;;;1.42;62.62402;95585.77;;;;
2021/03/25 02:48:37;;;;;;;3.5;1.9;;;;;;;1.42;62.62402;95585.77;;;;
2021/03/25 02:49:41;;;;;;;3.5;1.9;;;;;;;1.42;62.62402;95585.77;;;;
2021/03/25 02:50:45;;;;;;;3.5;1.9;;;;;;;1.42;62.62402;95585.77;;;;
2021/03/25 02:51:51;;;;;;;3.5;1.9;;;;;;;1.42;62.62402;95585.77;;;;
2021/03/25 02:52:58;;;;;;;3.5;1.9;;;;;;;1.42;62.62402;95585.77;;;;
2021/03/25 02:54:06;;;;;;;3.5;1.9;;;;;;;1.42;62.62402;95585.77;;;;
2021/03/25 02:55:07;;;;;;;3.5;1.9;;;;;;;1.42;62.62402;95585.77;;;;
2021/03/25 02:56:12;;;;;;;3.5;1.9;;;;;;;1.42;62.62402;95585.77;;;;
2021/03/25 02:57:18;;;;;;;3.5;1.9;;;;;;;1.42;62.62402;95585.77;;;;
2021/03/25 02:58:25;;;;;;;1.95;1.6;;;;;;;1.35;62.91895;95589.2;;;;
2021/03/25 02:59:29;;;;;;;1.95;1.6;;;;;;;1.35;62.91895;95589.2;;;;
2021/03/25 03:00:32;;;;;;;1.95;1.6;;;;;;;1.35;62.91895;95589.2;;;;
2021/03/25 03:01:37;;;;;;;1.95;1.6;;;;;;;1.35;62.91895;95589.2;;;;
2021/03/25 03:02:42;;;;;;;1.95;1.6;;;;;;;1.35;62.91895;95589.2;;;;
2021/03/25 03:03:48;;;;;;;1.95;1.6;;;;;;;1.35;62.91895;95589.2;;;;
2021/03/25 03:04:55;;;;;;;1.95;1.6;;;;;;;1.35;62.91895;95589.2;;;;
2021/03/25 03:06:00;;;;;;;1.95;1.6;;;;;;;1.35;62.91895;95589.2;;;;
2021/03/25 03:07:03;;;;;;;1.95;1.6;;;;;;;1.35;62.91895;95589.2;;;;
2021/03/25 03:08:07;;;;;;;1.95;1.6;;;;;;;1.35;62.91895;95589.2;;;;
2021/03/25 03:09:13;;;;;;;2.55;1.65;;;;;;;1.26;62.97852;95578.27;;;;
2021/03/25 03:10:20;;;;;;;2.55;1.65;;;;;;;1.26;62.97852;95578.27;;;;
2021/03/25 03:11:25;;;;;;;2.55;1.65;;;;;;;1.26;62.97852;95578.27;;;;
2021/03/25 03:12:29;;;;;;;2.55;1.65;;;;;;;1.26;62.97852;95578.27;;;;
2021/03/25 03:13:35;;;;;;;2.55;1.65;;;;;;;1.26;62.97852;95578.27;;;;
2021/03/25 03:14:40;;;;;;;2.55;1.65;;;;;;;1.26;62.97852;95578.27;;;;
2021/03/25 03:15:45;;;;;;;2.55;1.65;;;;;;;1.26;62.97852;95578.27;;;;
2021/03/25 03:16:50;;;;;;;2.55;1.65;;;;;;;1.26;62.97852;95578.27;;;;
2021/03/25 03:17:54;;;;;;;2.55;1.65;;;;;;;1.26;62.97852;95578.27;;;;
2021/03/25 03:19:02;;;;;;;2.05;1.85;;;;;;;1.09;63.25781;95584.13;;;;
2021/03/25 03:20:06;;;;;;;2.05;1.85;;;;;;;1.09;63.25781;95584.13;;;;
2021/03/25 03:21:11;;;;;;;2.05;1.85;;;;;;;1.09;63.25781;95584.13;;;;
2021/03/25 03:22:19;;;;;;;2.05;1.85;;;;;;;1.09;63.25781;95584.13;;;;
2021/03/25 03:23:19;;;;;;;2.05;1.85;;;;;;;1.09;63.25781;95584.13;;;;
2021/03/25 03:24:22;;;;;;;2.05;1.85;;;;;;;1.09;63.25781;95584.13;;;;
2021/03/25 03:25:23;;;;;;;2.05;1.85;;;;;;;1.09;63.25781;95584.13;;;;
2021/03/25 03:26:26;;;;;;;2.05;1.85;;;;;;;1.09;63.25781;95584.13;;;;
2021/03/25 03:27:32;;;;;;;2.05;1.85;;;;;;;1.09;63.25781;95584.13;;;;
2021/03/25 03:28:38;;;;;;;2.05;1.85;;;;;;;1.09;63.25781;95584.13;;;;
2021/03/25 03:29:44;;;;;;;3.9;2;;;;;;;1;63.64355;95579.85;;;;
2021/03/25 03:30:47;;;;;;;3.9;2;;;;;;;1;63.64355;95579.85;;;;
2021/03/25 03:31:51;;;;;;;3.9;2;;;;;;;1;63.64355;95579.85;;;;
2021/03/25 03:33:00;;;;;;;3.9;2;;;;;;;1;63.64355;95579.85;;;;
2021/03/25 03:34:07;;;;;;;3.9;2;;;;;;;1;63.64355;95579.85;;;;
2021/03/25 03:35:12;;;;;;;3.9;2;;;;;;;1;63.64355;95579.85;;;;
2021/03/25 03:36:17;;;;;;;3.9;2;;;;;;;1;63.64355;95579.85;;;;
2021/03/25 03:37:19;;;;;;;3.9;2;;;;;;;1;63.64355;95579.85;;;;
2021/03/25 03:38:26;;;;;;;3.9;2;;;;;;;1;63.64355;95579.85;;;;
2021/03/25 03:39:33;;;;;;;3.9;2;;;;;;;1;63.64355;95579.85;;;;
2021/03/25 03:40:35;;;;;;;2.35;1.8;;;;;;;0.95;63.7627;95570.22;;;;
2021/03/25 03:41:40;;;;;;;2.35;1.8;;;;;;;0.95;63.7627;95570.22;;;;
2021/03/25 03:42:45;;;;;;;2.35;1.8;;;;;;;0.95;63.7627;95570.22;;;;
2021/03/25 03:43:46;;;;;;;2.35;1.8;;;;;;;0.95;63.7627;95570.22;;;;
2021/03/25 03:44:49;;;;;;;2.35;1.8;;;;;;;0.95;63.7627;95570.22;;;;
2021/03/25 03:45:52;;;;;;;2.35;1.8;;;;;;;0.95;63.7627;95570.22;;;;
2021/03/25 03:46:57;;;;;;;2.35;1.8;;;;;;;0.95;63.7627;95570.22;;;;
2021/03/25 03:47:58;;;;;;;2.35;1.8;;;;;;;0.95;63.7627;95570.22;;;;
2021/03/25 03:49:04;;;;;;;2.35;1.8;;;;;;;0.95;63.7627;95570.22;;;;
2021/03/25 03:50:13;;;;;;;2.35;1.8;;;;;;;0.95;63.7627;95570.22;;;;
2021/03/25 03:51:23;;;;;;;3.25;2;;;;;;;0.97;63.66113;95575.27;;;;
2021/03/25 03:52:28;;;;;;;3.25;2;;;;;;;0.97;63.66113;95575.27;;;;
2021/03/25 03:53:32;;;;;;;3.25;2;;;;;;;0.97;63.66113;95575.27;;;;
2021/03/25 03:54:33;;;;;;;3.25;2;;;;;;;0.97;63.66113;95575.27;;;;
2021/03/25 03:55:34;;;;;;;3.25;2;;;;;;;0.97;63.66113;95575.27;;;;
2021/03/25 03:56:35;;;;;;;3.25;2;;;;;;;0.97;63.66113;95575.27;;;;
2021/03/25 03:57:40;;;;;;;3.25;2;;;;;;;0.97;63.66113;95575.27;;;;
2021/03/25 03:58:50;;;;;;;3.25;2;;;;;;;0.97;63.66113;95575.27;;;;
2021/03/25 03:59:56;;;;;;;3.25;2;;;;;;;0.97;63.66113;95575.27;;;;
2021/03/25 04:01:04;;;;;;;3.25;2;;;;;;;0.97;63.66113;95575.27;;;;
2021/03/25 04:02:10;;;;;;;5.200001;1.8;;;;;;;0.9;63.87012;95573.07;;;;
2021/03/25 04:03:16;;;;;;;5.200001;1.8;;;;;;;0.9;63.87012;95573.07;;;;
2021/03/25 04:04:22;;;;;;;5.200001;1.8;;;;;;;0.9;63.87012;95573.07;;;;
2021/03/25 04:05:28;;;;;;;5.200001;1.8;;;;;;;0.9;63.87012;95573.07;;;;
2021/03/25 04:06:32;;;;;;;5.200001;1.8;;;;;;;0.9;63.87012;95573.07;;;;
2021/03/25 04:07:37;;;;;;;5.200001;1.8;;;;;;;0.9;63.87012;95573.07;;;;
2021/03/25 04:08:43;;;;;;;5.200001;1.8;;;;;;;0.9;63.87012;95573.07;;;;
2021/03/25 04:09:50;;;;;;;5.200001;1.8;;;;;;;0.9;63.87012;95573.07;;;;
2021/03/25 04:10:58;;;;;;;5.200001;1.8;;;;;;;0.9;63.87012;95573.07;;;;
2021/03/25 04:12:05;;;;;;;5.200001;1.8;;;;;;;0.9;63.87012;95573.07;;;;
2021/03/25 04:13:11;;;;;;;2.15;1.65;;;;;;;0.83;64.39355;95578.73;;;;
2021/03/25 04:14:21;;;;;;;2.15;1.65;;;;;;;0.83;64.39355;95578.73;;;;
2021/03/25 04:15:25;;;;;;;2.15;1.65;;;;;;;0.83;64.39355;95578.73;;;;
2021/03/25 04:16:28;;;;;;;2.15;1.65;;;;;;;0.83;64.39355;95578.73;;;;
2021/03/25 04:17:30;;;;;;;2.15;1.65;;;;;;;0.83;64.39355;95578.73;;;;
2021/03/25 04:18:36;;;;;;;2.15;1.65;;;;;;;0.83;64.39355;95578.73;;;;
2021/03/25 04:19:44;;;;;;;2.15;1.65;;;;;;;0.83;64.39355;95578.73;;;;
2021/03/25 04:20:48;;;;;;;2.15;1.65;;;;;;;0.83;64.39355;95578.73;;;;
2021/03/25 04:21:54;;;;;;;2.15;1.65;;;;;;;0.83;64.39355;95578.73;;;;
2021/03/25 04:22:59;;;;;;;2.15;1.65;;;;;;;0.83;64.39355;95578.73;;;;
2021/03/25 04:24:05;;;;;;;1.7;1.5;;;;;;;0.86;64.59863;95576.56;;;;
2021/03/25 04:25:11;;;;;;;1.7;1.5;;;;;;;0.86;64.59863;95576.56;;;;
2021/03/25 04:26:18;;;;;;;1.7;1.5;;;;;;;0.86;64.59863;95576.56;;;;
2021/03/25 04:27:28;;;;;;;1.7;1.5;;;;;;;0.86;64.59863;95576.56;;;;
2021/03/25 04:28:33;;;;;;;1.7;1.5;;;;;;;0.86;64.59863;95576.56;;;;
2021/03/25 04:29:39;;;;;;;1.7;1.5;;;;;;;0.86;64.59863;95576.56;;;;
2021/03/25 04:30:44;;;;;;;1.7;1.5;;;;;;;0.86;64.59863;95576.56;;;;
2021/03/25 04:31:46;;;;;;;1.7;1.5;;;;;;;0.86;64.59863;95576.56;;;;
2021/03/25 04:32:47;;;;;;;1.7;1.5;;;;;;;0.86;64.59863;95576.56;;;;
2021/03/25 04:33:49;;;;;;;1.75;1.4;;;;;;;0.87;64.70508;95579.53;;;;
2021/03/25 04:34:49;;;;;;;1.75;1.4;;;;;;;0.87;64.70508;95579.53;;;;
2021/03/25 04:35:51;;;;;;;1.75;1.4;;;;;;;0.87;64.70508;95579.53;;;;
2021/03/25 04:36:53;;;;;;;1.75;1.4;;;;;;;0.87;64.70508;95579.53;;;;
2021/03/25 04:37:56;;;;;;;1.75;1.4;;;;;;;0.87;64.70508;95579.53;;;;
2021/03/25 04:38:58;;;;;;;1.75;1.4;;;;;;;0.87;64.70508;95579.53;;;;
2021/03/25 04:40:01;;;;;;;1.75;1.4;;;;;;;0.87;64.70508;95579.53;;;;
2021/03/25 04:41:09;;;;;;;1.75;1.4;;;;;;;0.87;64.70508;95579.53;;;;
2021/03/25 04:42:12;;;;;;;1.75;1.4;;;;;;;0.87;64.70508;95579.53;;;;
2021/03/25 04:43:13;;;;;;;1.75;1.4;;;;;;;0.87;64.70508;95579.53;;;;
2021/03/25 04:44:16;;;;;;;1.75;1.4;;;;;;;0.87;64.70508;95579.53;;;;
2021/03/25 04:45:32;;;;;;;1.9;1.55;;;;;;;0.8;64.63086;95578.13;;;;
2021/03/25 04:46:45;;;;;;;1.9;1.55;;;;;;;0.8;64.63086;95578.13;;;;
2021/03/25 04:47:52;;;;;;;1.9;1.55;;;;;;;0.8;64.63086;95578.13;;;;
2021/03/25 04:48:58;;;;;;;1.9;1.55;;;;;;;0.8;64.63086;95578.13;;;;
2021/03/25 04:50:04;;;;;;;1.9;1.55;;;;;;;0.8;64.63086;95578.13;;;;
2021/03/25 04:51:13;;;;;;;1.9;1.55;;;;;;;0.8;64.63086;95578.13;;;;
2021/03/25 04:52:17;;;;;;;1.9;1.55;;;;;;;0.8;64.63086;95578.13;;;;
2021/03/25 04:53:21;;;;;;;1.9;1.55;;;;;;;0.8;64.63086;95578.13;;;;
2021/03/25 04:54:24;;;;;;;1.9;1.55;;;;;;;0.8;64.63086;95578.13;;;;
2021/03/25 04:55:29;;;;;;;3;1.8;;;;;;;0.71;64.7959;95583.97;;;;
2021/03/25 04:56:33;;;;;;;3;1.8;;;;;;;0.71;64.7959;95583.97;;;;
2021/03/25 04:57:34;;;;;;;3;1.8;;;;;;;0.71;64.7959;95583.97;;;;
2021/03/25 04:58:38;;;;;;;3;1.8;;;;;;;0.71;64.7959;95583.97;;;;
2021/03/25 04:59:44;;;;;;;3;1.8;;;;;;;0.71;64.7959;95583.97;;;;
2021/03/25 05:00:45;;;;;;;3;1.8;;;;;;;0.71;64.7959;95583.97;;;;
2021/03/25 05:01:45;;;;;;;3;1.8;;;;;;;0.71;64.7959;95583.97;;;;
2021/03/25 05:02:46;;;;;;;3;1.8;;;;;;;0.71;64.7959;95583.97;;;;
2021/03/25 05:03:47;;;;;;;3;1.8;;;;;;;0.71;64.7959;95583.97;;;;
2021/03/25 05:04:49;;;;;;;3;1.8;;;;;;;0.71;64.7959;95583.97;;;;
2021/03/25 05:05:55;;;;;;;3.5;1.75;;;;;;;0.64;64.79492;95583.48;;;;
2021/03/25 05:06:56;;;;;;;3.5;1.75;;;;;;;0.64;64.79492;95583.48;;;;
2021/03/25 05:08:00;;;;;;;3.5;1.75;;;;;;;0.64;64.79492;95583.48;;;;
2021/03/25 05:09:05;;;;;;;3.5;1.75;;;;;;;0.64;64.79492;95583.48;;;;
2021/03/25 05:10:05;;;;;;;3.5;1.75;;;;;;;0.64;64.79492;95583.48;;;;
2021/03/25 05:11:17;;;;;;;3.5;1.75;;;;;;;0.64;64.79492;95583.48;;;;
2021/03/25 05:12:20;;;;;;;3.5;1.75;;;;;;;0.64;64.79492;95583.48;;;;
2021/03/25 05:13:21;;;;;;;3.5;1.75;;;;;;;0.64;64.79492;95583.48;;;;
2021/03/25 05:14:24;;;;;;;3.5;1.75;;;;;;;0.64;64.79492;95583.48;;;;
2021/03/25 05:15:27;;;;;;;3.5;1.75;;;;;;;0.64;64.79492;95583.48;;;;
2021/03/25 05:16:29;;;;;;;3.6;1.7;;;;;;;0.7;65.01465;95584.14;;;;
2021/03/25 05:17:38;;;;;;;3.6;1.7;;;;;;;0.7;65.01465;95584.14;;;;
2021/03/25 05:18:49;;;;;;;3.6;1.7;;;;;;;0.7;65.01465;95584.14;;;;
2021/03/25 05:20:14;;;;;;;3.6;1.7;;;;;;;0.7;65.01465;95584.14;;;;
2021/03/25 05:21:20;;;;;;;3.6;1.7;;;;;;;0.7;65.01465;95584.14;;;;
2021/03/25 05:22:29;;;;;;;3.6;1.7;;;;;;;0.7;65.01465;95584.14;;;;
2021/03/25 05:23:39;;;;;;;3.6;1.7;;;;;;;0.7;65.01465;95584.14;;;;
2021/03/25 05:24:45;;;;;;;3.6;1.7;;;;;;;0.7;65.01465;95584.14;;;;
2021/03/25 05:25:52;;;;;;;3.6;1.7;;;;;;;0.7;65.01465;95584.14;;;;
2021/03/25 05:27:00;;;;;;;3.6;1.7;;;;;;;0.7;65.01465;95584.14;;;;
2021/03/25 05:28:07;;;;;;;2.8;1.9;;;;;;;0.83;64.91992;95589.74;;;;
2021/03/25 05:29:15;;;;;;;2.8;1.9;;;;;;;0.83;64.91992;95589.74;;;;
2021/03/25 05:30:17;;;;;;;2.8;1.9;;;;;;;0.83;64.91992;95589.74;;;;
2021/03/25 05:31:22;;;;;;;2.8;1.9;;;;;;;0.83;64.91992;95589.74;;;;
2021/03/25 05:32:24;;;;;;;2.8;1.9;;;;;;;0.83;64.91992;95589.74;;;;
2021/03/25 05:33:34;;;;;;;2.8;1.9;;;;;;;0.83;64.91992;95589.74;;;;
2021/03/25 05:34:36;;;;;;;2.8;1.9;;;;;;;0.83;64.91992;95589.74;;;;
2021/03/25 05:35:38;;;;;;;2.8;1.9;;;;;;;0.83;64.91992;95589.74;;;;
2021/03/25 05:36:42;;;;;;;2.8;1.9;;;;;;;0.83;64.91992;95589.74;;;;
2021/03/25 05:37:43;;;;;;;2.8;1.9;;;;;;;0.83;64.91992;95589.74;;;;
2021/03/25 05:38:44;;;;;;;5.8;3.1;;;;;;;1.01;64.9375;95587.22;;;;
2021/03/25 05:39:46;;;;;;;5.8;3.1;;;;;;;1.01;64.9375;95587.22;;;;
2021/03/25 05:40:48;;;;;;;5.8;3.1;;;;;;;1.01;64.9375;95587.22;;;;
2021/03/25 05:41:54;;;;;;;5.8;3.1;;;;;;;1.01;64.9375;95587.22;;;;
2021/03/25 05:43:11;;;;;;;5.8;3.1;;;;;;;1.01;64.9375;95587.22;;;;
2021/03/25 05:44:32;;;;;;;5.8;3.1;;;;;;;1.01;64.9375;95587.22;;;;
2021/03/25 05:45:54;;;;;;;5.8;3.1;;;;;;;1.01;64.9375;95587.22;;;;
2021/03/25 05:47:03;;;;;;;5.8;3.1;;;;;;;1.01;64.9375;95587.22;;;;
2021/03/25 05:48:22;;;;;;;5.8;3.1;;;;;;;1.01;64.9375;95587.22;;;;
2021/03/25 05:49:37;;;;;;;3.95;2.3;;;;;;;1.28;64.91309;95591.82;;;;
2021/03/25 05:50:49;;;;;;;3.95;2.3;;;;;;;1.28;64.91309;95591.82;;;;
2021/03/25 05:51:54;;;;;;;3.95;2.3;;;;;;;1.28;64.91309;95591.82;;;;
2021/03/25 05:53:05;;;;;;;3.95;2.3;;;;;;;1.28;64.91309;95591.82;;;;
2021/03/25 05:54:17;;;;;;;3.95;2.3;;;;;;;1.28;64.91309;95591.82;;;;
2021/03/25 05:55:28;;;;;;;3.95;2.3;;;;;;;1.28;64.91309;95591.82;;;;
2021/03/25 05:56:48;;;;;;;3.95;2.3;;;;;;;1.28;64.91309;95591.82;;;;
2021/03/25 05:57:59;;;;;;;3.95;2.3;;;;;;;1.28;64.91309;95591.82;;;;
2021/03/25 05:59:15;;;;;;;3.8;2.05;;;;;;;1.65;64.78125;95596.38;;;;
2021/03/25 06:00:19;;;;;;;3.8;2.05;;;;;;;1.65;64.78125;95596.38;;;;
2021/03/25 06:01:37;;;;;;;3.8;2.05;;;;;;;1.65;64.78125;95596.38;;;;
2021/03/25 06:02:50;;;;;;;3.8;2.05;;;;;;;1.65;64.78125;95596.38;;;;
2021/03/25 06:03:58;;;;;;;3.8;2.05;;;;;;;1.65;64.78125;95596.38;;;;
2021/03/25 06:05:02;;;;;;;3.8;2.05;;;;;;;1.65;64.78125;95596.38;;;;
2021/03/25 06:06:05;;;;;;;3.8;2.05;;;;;;;1.65;64.78125;95596.38;;;;
2021/03/25 06:07:18;;;;;;;3.8;2.05;;;;;;;1.65;64.78125;95596.38;;;;
2021/03/25 06:08:42;;;;;;;3.8;2.05;;;;;;;1.65;64.78125;95596.38;;;;
2021/03/25 06:09:50;;;;;;;2;1.55;;;;;;;2.28;65.0127;95597.07;;;;
2021/03/25 06:11:01;;;;;;;2;1.55;;;;;;;2.28;65.0127;95597.07;;;;
2021/03/25 06:12:15;;;;;;;2;1.55;;;;;;;2.28;65.0127;95597.07;;;;
2021/03/25 06:13:27;;;;;;;2;1.55;;;;;;;2.28;65.0127;95597.07;;;;
2021/03/25 06:14:42;;;;;;;2;1.55;;;;;;;2.28;65.0127;95597.07;;;;
2021/03/25 06:16:04;;;;;;;2;1.55;;;;;;;2.28;65.0127;95597.07;;;;
2021/03/25 06:17:19;;;;;;;2;1.55;;;;;;;2.28;65.0127;95597.07;;;;
2021/03/25 06:18:35;;;;;;;2;1.55;;;;;;;2.28;65.0127;95597.07;;;;
2021/03/25 06:19:52;;;;;;;2;1.55;;;;;;;2.28;65.0127;95597.07;;;;
2021/03/25 06:21:14;;;;;;;2.8;1.7;;;;;;;2.84;64.64551;95601.53;;;;
2021/03/25 06:22:24;;;;;;;2.8;1.7;;;;;;;2.84;64.64551;95601.53;;;;
2021/03/25 06:23:31;;;;;;;2.8;1.7;;;;;;;2.84;64.64551;95601.53;;;;
2021/03/25 06:24:52;;;;;;;2.8;1.7;;;;;;;2.84;64.64551;95601.53;;;;
2021/03/25 06:27:12;;;;;;;2.8;1.7;;;;;;;2.84;64.64551;95601.53;;;;
2021/03/25 06:28:23;;;;;;;2.8;1.7;;;;;;;2.84;64.64551;95601.53;;;;